Main page
METAR-TAF:

METAR-TAF

Airports :

Istanbul Airport

Istanbul, Turkey

latitude: 41-16-31N, longitude: 028-45-07E, elevation: 99 m

Current weather observation

The report was made 34 minutes ago, at 20:20 UTC
Wind 8 kt from the East/Northeast
Temperature 24°C
Humidity 74%
Pressure 1019 hPa
Visibility 10 km or more
no clouds below 1500 m and no cumulonimbus

METAR: LTFM 212020Z 06008KT CAVOK 24/19 Q1019 NOSIG RMK RWY17L 06006KT RWY34L 05007KT RWY16R 06007KT

Time: 23:54 (20:54 UTC)

Forecast

The report was made 4 hours and 14 minutes ago, at 16:40 UTC
Forecast valid from 21 at 18 UTC to 22 at 24 UTC
Wind 12 kt from the Northeast
Visibility 10 km or more
no clouds below 1500 m and no cumulonimbus
Becoming
from 22 at 00 UTC to 22 at 03 UTC
Few clouds at a height of 2800 ft
Becoming
from 22 at 12 UTC to 22 at 15 UTC
Visibility 10 km or more
no clouds below 1500 m and no cumulonimbus

TAF: LTFM 211640Z 2118/2224 04012KT CAVOK BECMG 2200/2203 FEW028 BECMG 2212/2215 CAVOK

Weather observations and forecasts of more than 4000 airports (METAR and TAF reports).

The available stations are represented by yellow and red dots on the map.

Hover mouse over dot to see the name of the station.

Then click to see weather observations and forecasts.

To change the map : click on the green buttons with a black cross to zoom in, on the green button with a dash to zoom out, or on the green arrows for adjacent maps.


METAR-TAF: